createdAt,value
2018-12-26T18:19:11.994Z,21.40
2018-12-26T18:21:42.815Z,21.40
2018-12-26T18:24:13.634Z,21.42
2018-12-26T18:26:44.529Z,21.44
2018-12-26T18:29:16.314Z,21.45
2018-12-26T18:31:47.161Z,21.43
2018-12-26T18:34:18.052Z,21.44
2018-12-26T18:36:48.853Z,21.42
2018-12-26T18:39:19.927Z,21.43
2018-12-26T18:41:50.757Z,21.42
2018-12-26T18:44:21.665Z,21.44
2018-12-26T18:46:52.439Z,21.37
2018-12-26T18:49:23.264Z,21.28
2018-12-26T18:51:54.063Z,21.20
2018-12-26T18:54:24.968Z,21.14
2018-12-26T18:56:55.809Z,21.11
2018-12-26T18:59:26.622Z,21.07
2018-12-26T19:01:56.913Z,21.06
2018-12-26T19:04:27.253Z,21.00
2018-12-26T19:06:59.245Z,20.96
2018-12-26T19:09:30.196Z,20.89
2018-12-26T19:12:00.567Z,20.83
2018-12-26T19:14:31.465Z,20.80
2018-12-26T19:17:01.838Z,20.76
2018-12-26T19:19:32.844Z,20.72
2018-12-26T19:22:03.774Z,20.66
2018-12-26T19:24:34.819Z,20.67
2018-12-26T19:27:05.779Z,20.60
2018-12-26T19:29:36.731Z,20.58
2018-12-26T19:32:07.652Z,20.56
2018-12-26T19:34:38.111Z,20.54
2018-12-26T19:37:09.102Z,20.49
2018-12-26T19:39:40.012Z,20.48
2018-12-26T19:42:10.405Z,20.43
2018-12-26T19:44:38.690Z,20.44
2018-12-26T19:47:06.018Z,20.40
2018-12-26T19:49:33.305Z,20.40
2018-12-26T19:52:00.629Z,20.36
2018-12-26T19:54:27.929Z,20.34
2018-12-26T19:56:55.242Z,20.30
2018-12-26T19:59:22.692Z,20.27
2018-12-26T20:01:50.052Z,20.28
2018-12-26T20:04:17.520Z,20.28
2018-12-26T20:06:44.794Z,20.32
2018-12-26T20:09:12.202Z,20.21
2018-12-26T20:11:39.545Z,20.23
2018-12-26T20:14:06.939Z,20.21
2018-12-26T20:16:34.232Z,20.19
2018-12-26T20:19:01.483Z,20.18
2018-12-26T20:21:29.883Z,20.14
2018-12-26T20:23:57.202Z,20.12
2018-12-26T20:26:24.468Z,20.03
2018-12-26T20:28:51.820Z,20.04
2018-12-26T20:31:19.204Z,20.02
2018-12-26T20:33:46.532Z,20.01
2018-12-26T20:39:26.206Z,19.92
2018-12-26T20:41:53.552Z,19.88
2018-12-26T20:44:20.794Z,19.90
2018-12-26T20:46:48.083Z,19.94
2018-12-26T20:49:15.373Z,19.84
2018-12-26T20:51:42.742Z,19.81
2018-12-26T20:54:10.018Z,19.84
2018-12-26T20:56:37.860Z,19.77
2018-12-26T20:59:05.165Z,19.75
2018-12-26T21:01:32.553Z,19.70
2018-12-26T21:03:59.906Z,19.65
2018-12-26T21:06:27.205Z,19.60
2018-12-26T21:08:54.622Z,19.59
2018-12-26T21:11:22.220Z,19.56
2018-12-26T21:13:49.500Z,19.54
2018-12-26T21:16:16.901Z,19.53
2018-12-26T21:18:44.154Z,19.51
2018-12-26T21:21:11.493Z,19.48
2018-12-26T21:23:38.845Z,19.46
2018-12-26T21:26:06.127Z,19.41
2018-12-26T21:28:33.418Z,19.39
2018-12-26T21:31:00.841Z,19.39
2018-12-26T21:33:28.145Z,19.34
2018-12-26T21:35:55.564Z,19.33
2018-12-26T21:38:22.910Z,19.35
2018-12-26T21:40:50.235Z,19.30
2018-12-26T21:43:17.934Z,19.30
2018-12-26T21:45:45.221Z,19.29
2018-12-26T21:48:12.597Z,19.27
2018-12-26T21:50:39.949Z,19.25
2018-12-26T21:53:07.407Z,19.23
2018-12-26T21:55:34.764Z,19.21
2018-12-26T21:58:02.112Z,19.20
2018-12-26T22:00:29.458Z,19.20
2018-12-26T22:02:56.887Z,19.18
2018-12-26T22:05:24.350Z,19.18
2018-12-26T22:07:51.650Z,19.14
2018-12-26T22:10:18.930Z,19.15
2018-12-26T22:12:46.215Z,19.12
2018-12-26T22:15:14.571Z,19.11
2018-12-26T22:17:42.990Z,19.10
2018-12-26T22:20:10.248Z,19.09
2018-12-26T22:22:37.633Z,19.07
2018-12-26T22:25:05.150Z,16.22
2018-12-26T22:27:32.457Z,14.87
2018-12-26T22:29:59.869Z,15.02
2018-12-26T22:32:30.802Z,14.77
2018-12-26T22:34:56.403Z,14.00
2018-12-26T22:37:23.744Z,14.07
2018-12-26T22:39:51.076Z,13.86
2018-12-26T22:42:18.609Z,13.51
2018-12-26T22:44:46.117Z,13.72
2018-12-26T22:47:13.422Z,14.82
2018-12-26T22:49:40.673Z,16.13
2018-12-26T22:52:07.980Z,16.61
2018-12-26T22:54:35.387Z,16.79
2018-12-26T22:57:02.750Z,17.04
2018-12-26T22:59:30.336Z,17.15
2018-12-26T23:01:57.645Z,17.24
2018-12-26T23:04:24.964Z,17.42
2018-12-26T23:06:52.326Z,17.52
2018-12-26T23:09:19.641Z,17.54
2018-12-26T23:11:46.950Z,17.60
2018-12-26T23:14:14.393Z,17.65
2018-12-26T23:16:41.734Z,17.73
2018-12-26T23:19:09.236Z,17.72
2018-12-26T23:21:36.545Z,17.74
2018-12-26T23:24:03.821Z,17.73
2018-12-26T23:26:31.155Z,17.73
2018-12-26T23:28:58.384Z,17.80
2018-12-26T23:31:25.499Z,17.84
2018-12-26T23:33:52.763Z,17.83
2018-12-26T23:36:19.918Z,17.86
2018-12-26T23:38:47.084Z,17.89
2018-12-26T23:41:14.292Z,17.92
2018-12-26T23:43:41.674Z,17.95
2018-12-26T23:46:08.911Z,17.98
2018-12-26T23:48:36.120Z,17.96
2018-12-26T23:51:03.281Z,17.93
2018-12-26T23:53:30.810Z,17.94
2018-12-26T23:55:57.967Z,17.88
2018-12-26T23:58:25.134Z,17.90
